sensor_id;sensor_type;location;lat;lon;timestamp;P1;durP1;ratioP1;P2;durP2;ratioP2
71667;SDS011;59504;54.806;9.640;2022-10-12T00:02:04;6.97;;;1.92;;
71667;SDS011;59504;54.806;9.640;2022-10-12T00:04:23;9.73;;;2.00;;
71667;SDS011;59504;54.806;9.640;2022-10-12T00:06:43;8.45;;;1.70;;
71667;SDS011;59504;54.806;9.640;2022-10-12T00:09:02;9.85;;;1.75;;
71667;SDS011;59504;54.806;9.640;2022-10-12T00:11:22;8.85;;;2.08;;
71667;SDS011;59504;54.806;9.640;2022-10-12T00:13:44;6.78;;;1.70;;
71667;SDS011;59504;54.806;9.640;2022-10-12T00:16:05;12.38;;;2.40;;
71667;SDS011;59504;54.806;9.640;2022-10-12T00:18:25;8.32;;;1.70;;
71667;SDS011;59504;54.806;9.640;2022-10-12T00:20:44;10.63;;;2.03;;
71667;SDS011;59504;54.806;9.640;2022-10-12T00:23:04;11.05;;;2.20;;
71667;SDS011;59504;54.806;9.640;2022-10-12T00:25:23;9.48;;;2.03;;
71667;SDS011;59504;54.806;9.640;2022-10-12T00:27:43;8.20;;;1.95;;
71667;SDS011;59504;54.806;9.640;2022-10-12T00:30:04;9.98;;;2.35;;
71667;SDS011;59504;54.806;9.640;2022-10-12T00:32:23;11.07;;;2.00;;
71667;SDS011;59504;54.806;9.640;2022-10-12T00:34:42;10.43;;;2.45;;
71667;SDS011;59504;54.806;9.640;2022-10-12T00:37:01;8.80;;;2.08;;
71667;SDS011;59504;54.806;9.640;2022-10-12T00:39:20;7.90;;;1.65;;
71667;SDS011;59504;54.806;9.640;2022-10-12T00:41:40;7.70;;;1.80;;
71667;SDS011;59504;54.806;9.640;2022-10-12T00:44:01;11.48;;;1.98;;
71667;SDS011;59504;54.806;9.640;2022-10-12T00:46:24;7.28;;;1.55;;
71667;SDS011;59504;54.806;9.640;2022-10-12T00:48:58;12.85;;;2.28;;
71667;SDS011;59504;54.806;9.640;2022-10-12T00:51:28;8.13;;;2.05;;
71667;SDS011;59504;54.806;9.640;2022-10-12T00:53:50;7.55;;;1.80;;
71667;SDS011;59504;54.806;9.640;2022-10-12T00:56:22;8.57;;;2.00;;
71667;SDS011;59504;54.806;9.640;2022-10-12T00:58:44;7.90;;;1.73;;
71667;SDS011;59504;54.806;9.640;2022-10-12T01:01:05;7.93;;;1.70;;
71667;SDS011;59504;54.806;9.640;2022-10-12T01:03:25;12.07;;;1.95;;
71667;SDS011;59504;54.806;9.640;2022-10-12T01:05:44;8.80;;;1.50;;
71667;SDS011;59504;54.806;9.640;2022-10-12T01:08:03;11.38;;;2.35;;
71667;SDS011;59504;54.806;9.640;2022-10-12T01:10:22;10.90;;;1.83;;
71667;SDS011;59504;54.806;9.640;2022-10-12T01:12:42;8.48;;;1.60;;
71667;SDS011;59504;54.806;9.640;2022-10-12T01:15:04;13.90;;;2.10;;
71667;SDS011;59504;54.806;9.640;2022-10-12T01:17:33;9.52;;;1.85;;
71667;SDS011;59504;54.806;9.640;2022-10-12T01:20:07;10.13;;;1.88;;
71667;SDS011;59504;54.806;9.640;2022-10-12T01:25:25;13.68;;;1.92;;
71667;SDS011;59504;54.806;9.640;2022-10-12T01:28:01;7.93;;;1.83;;
71667;SDS011;59504;54.806;9.640;2022-10-12T01:30:42;10.55;;;2.45;;
71667;SDS011;59504;54.806;9.640;2022-10-12T01:33:20;8.75;;;1.98;;
71667;SDS011;59504;54.806;9.640;2022-10-12T01:38:27;8.52;;;2.45;;
71667;SDS011;59504;54.806;9.640;2022-10-12T01:40:58;9.77;;;1.83;;
71667;SDS011;59504;54.806;9.640;2022-10-12T01:43:31;7.70;;;2.20;;
71667;SDS011;59504;54.806;9.640;2022-10-12T01:45:52;10.60;;;1.98;;
71667;SDS011;59504;54.806;9.640;2022-10-12T01:48:12;9.63;;;1.80;;
71667;SDS011;59504;54.806;9.640;2022-10-12T01:50:35;7.10;;;1.60;;
71667;SDS011;59504;54.806;9.640;2022-10-12T01:58:12;5.95;;;1.60;;
71667;SDS011;59504;54.806;9.640;2022-10-12T02:06:31;9.57;;;2.10;;
71667;SDS011;59504;54.806;9.640;2022-10-12T02:08:58;7.90;;;1.52;;
71667;SDS011;59504;54.806;9.640;2022-10-12T02:11:25;9.32;;;1.67;;
71667;SDS011;59504;54.806;9.640;2022-10-12T02:13:48;10.13;;;1.83;;
71667;SDS011;59504;54.806;9.640;2022-10-12T02:16:19;6.20;;;1.60;;
71667;SDS011;59504;54.806;9.640;2022-10-12T02:18:42;6.38;;;1.48;;
71667;SDS011;59504;54.806;9.640;2022-10-12T02:21:05;9.38;;;1.67;;
71667;SDS011;59504;54.806;9.640;2022-10-12T02:23:27;6.80;;;1.85;;
71667;SDS011;59504;54.806;9.640;2022-10-12T02:25:47;9.50;;;1.70;;
71667;SDS011;59504;54.806;9.640;2022-10-12T02:28:08;11.13;;;1.73;;
71667;SDS011;59504;54.806;9.640;2022-10-12T02:30:31;9.55;;;1.52;;
71667;SDS011;59504;54.806;9.640;2022-10-12T02:33:10;11.02;;;1.73;;
71667;SDS011;59504;54.806;9.640;2022-10-12T02:35:45;4.43;;;1.52;;
71667;SDS011;59504;54.806;9.640;2022-10-12T02:38:21;5.93;;;1.38;;
71667;SDS011;59504;54.806;9.640;2022-10-12T02:40:50;5.07;;;1.20;;
71667;SDS011;59504;54.806;9.640;2022-10-12T02:43:18;5.15;;;1.20;;
71667;SDS011;59504;54.806;9.640;2022-10-12T02:45:59;4.05;;;1.63;;
71667;SDS011;59504;54.806;9.640;2022-10-12T02:48:20;5.00;;;1.75;;
71667;SDS011;59504;54.806;9.640;2022-10-12T02:50:41;11.30;;;1.60;;
71667;SDS011;59504;54.806;9.640;2022-10-12T02:53:01;12.93;;;1.40;;
71667;SDS011;59504;54.806;9.640;2022-10-12T02:55:22;9.00;;;1.50;;
71667;SDS011;59504;54.806;9.640;2022-10-12T02:57:41;5.22;;;1.27;;
71667;SDS011;59504;54.806;9.640;2022-10-12T03:00:00;8.18;;;1.73;;
71667;SDS011;59504;54.806;9.640;2022-10-12T03:02:19;7.28;;;1.30;;
71667;SDS011;59504;54.806;9.640;2022-10-12T03:04:39;6.70;;;1.27;;
71667;SDS011;59504;54.806;9.640;2022-10-12T03:06:58;13.13;;;1.95;;
71667;SDS011;59504;54.806;9.640;2022-10-12T03:09:18;5.53;;;1.15;;
71667;SDS011;59504;54.806;9.640;2022-10-12T03:11:37;3.97;;;1.05;;
71667;SDS011;59504;54.806;9.640;2022-10-12T03:14:01;12.10;;;1.20;;
71667;SDS011;59504;54.806;9.640;2022-10-12T03:16:20;6.47;;;1.35;;
71667;SDS011;59504;54.806;9.640;2022-10-12T03:18:39;3.80;;;1.17;;
71667;SDS011;59504;54.806;9.640;2022-10-12T03:21:00;7.97;;;1.40;;
71667;SDS011;59504;54.806;9.640;2022-10-12T03:23:19;6.13;;;1.20;;
71667;SDS011;59504;54.806;9.640;2022-10-12T03:25:38;7.30;;;1.30;;
71667;SDS011;59504;54.806;9.640;2022-10-12T03:27:59;5.68;;;1.58;;
71667;SDS011;59504;54.806;9.640;2022-10-12T03:30:18;4.50;;;1.42;;
71667;SDS011;59504;54.806;9.640;2022-10-12T03:32:37;6.60;;;1.40;;
71667;SDS011;59504;54.806;9.640;2022-10-12T03:34:57;6.97;;;1.20;;
71667;SDS011;59504;54.806;9.640;2022-10-12T03:37:17;7.32;;;1.20;;
71667;SDS011;59504;54.806;9.640;2022-10-12T03:39:36;10.20;;;1.20;;
71667;SDS011;59504;54.806;9.640;2022-10-12T03:41:55;9.65;;;1.55;;
71667;SDS011;59504;54.806;9.640;2022-10-12T03:44:15;14.18;;;1.67;;
71667;SDS011;59504;54.806;9.640;2022-10-12T03:46:34;2.55;;;0.80;;
71667;SDS011;59504;54.806;9.640;2022-10-12T03:48:53;7.25;;;1.20;;
71667;SDS011;59504;54.806;9.640;2022-10-12T03:51:12;9.43;;;1.30;;
71667;SDS011;59504;54.806;9.640;2022-10-12T03:53:31;6.28;;;1.30;;
71667;SDS011;59504;54.806;9.640;2022-10-12T03:55:50;7.07;;;1.10;;
71667;SDS011;59504;54.806;9.640;2022-10-12T03:58:09;7.53;;;1.20;;
71667;SDS011;59504;54.806;9.640;2022-10-12T04:00:29;13.48;;;1.52;;
71667;SDS011;59504;54.806;9.640;2022-10-12T04:02:48;8.27;;;1.35;;
71667;SDS011;59504;54.806;9.640;2022-10-12T04:05:08;10.05;;;1.35;;
71667;SDS011;59504;54.806;9.640;2022-10-12T04:07:27;5.65;;;1.40;;
71667;SDS011;59504;54.806;9.640;2022-10-12T04:09:46;6.40;;;1.48;;
71667;SDS011;59504;54.806;9.640;2022-10-12T04:12:05;8.63;;;1.08;;
71667;SDS011;59504;54.806;9.640;2022-10-12T04:14:24;7.95;;;1.30;;
71667;SDS011;59504;54.806;9.640;2022-10-12T04:16:43;11.25;;;1.48;;
71667;SDS011;59504;54.806;9.640;2022-10-12T04:19:03;8.45;;;1.52;;
71667;SDS011;59504;54.806;9.640;2022-10-12T04:21:22;4.05;;;1.27;;
71667;SDS011;59504;54.806;9.640;2022-10-12T04:23:43;12.45;;;1.67;;
71667;SDS011;59504;54.806;9.640;2022-10-12T04:26:02;8.00;;;1.35;;
71667;SDS011;59504;54.806;9.640;2022-10-12T04:28:21;8.18;;;1.60;;
71667;SDS011;59504;54.806;9.640;2022-10-12T04:30:40;8.85;;;1.52;;
71667;SDS011;59504;54.806;9.640;2022-10-12T04:32:59;9.05;;;1.42;;
71667;SDS011;59504;54.806;9.640;2022-10-12T04:35:18;10.70;;;1.23;;
71667;SDS011;59504;54.806;9.640;2022-10-12T04:37:37;3.45;;;1.48;;
71667;SDS011;59504;54.806;9.640;2022-10-12T04:39:56;9.40;;;1.60;;
71667;SDS011;59504;54.806;9.640;2022-10-12T04:42:15;7.28;;;1.52;;
71667;SDS011;59504;54.806;9.640;2022-10-12T04:44:34;12.98;;;1.33;;
71667;SDS011;59504;54.806;9.640;2022-10-12T04:46:53;7.88;;;1.48;;
71667;SDS011;59504;54.806;9.640;2022-10-12T04:49:13;9.00;;;1.80;;
71667;SDS011;59504;54.806;9.640;2022-10-12T04:51:33;5.50;;;1.52;;
71667;SDS011;59504;54.806;9.640;2022-10-12T04:53:52;12.30;;;1.83;;
71667;SDS011;59504;54.806;9.640;2022-10-12T04:56:11;10.43;;;1.40;;
71667;SDS011;59504;54.806;9.640;2022-10-12T04:58:31;8.25;;;1.52;;
71667;SDS011;59504;54.806;9.640;2022-10-12T05:00:50;7.60;;;1.60;;
71667;SDS011;59504;54.806;9.640;2022-10-12T05:03:09;8.63;;;1.67;;
71667;SDS011;59504;54.806;9.640;2022-10-12T05:05:28;9.85;;;2.28;;
71667;SDS011;59504;54.806;9.640;2022-10-12T05:07:47;8.55;;;1.75;;
71667;SDS011;59504;54.806;9.640;2022-10-12T05:10:06;8.88;;;1.92;;
71667;SDS011;59504;54.806;9.640;2022-10-12T05:12:26;5.72;;;1.10;;
71667;SDS011;59504;54.806;9.640;2022-10-12T05:14:45;5.18;;;1.42;;
71667;SDS011;59504;54.806;9.640;2022-10-12T05:17:04;8.10;;;1.50;;
71667;SDS011;59504;54.806;9.640;2022-10-12T05:19:24;6.70;;;1.30;;
71667;SDS011;59504;54.806;9.640;2022-10-12T05:21:43;5.45;;;1.23;;
71667;SDS011;59504;54.806;9.640;2022-10-12T05:24:02;8.43;;;1.63;;
71667;SDS011;59504;54.806;9.640;2022-10-12T05:26:21;10.25;;;1.80;;
71667;SDS011;59504;54.806;9.640;2022-10-12T05:28:40;6.90;;;2.00;;
71667;SDS011;59504;54.806;9.640;2022-10-12T05:30:59;13.75;;;1.77;;
71667;SDS011;59504;54.806;9.640;2022-10-12T05:33:19;8.70;;;1.98;;
71667;SDS011;59504;54.806;9.640;2022-10-12T05:35:38;12.32;;;2.40;;
71667;SDS011;59504;54.806;9.640;2022-10-12T05:37:57;9.10;;;2.20;;
71667;SDS011;59504;54.806;9.640;2022-10-12T05:40:16;16.05;;;2.40;;
71667;SDS011;59504;54.806;9.640;2022-10-12T05:42:36;7.15;;;1.98;;
71667;SDS011;59504;54.806;9.640;2022-10-12T05:44:55;13.38;;;2.28;;
71667;SDS011;59504;54.806;9.640;2022-10-12T05:47:14;11.60;;;2.25;;
71667;SDS011;59504;54.806;9.640;2022-10-12T05:49:33;7.55;;;2.60;;
71667;SDS011;59504;54.806;9.640;2022-10-12T05:51:52;10.20;;;2.92;;
71667;SDS011;59504;54.806;9.640;2022-10-12T05:54:11;12.73;;;2.65;;
71667;SDS011;59504;54.806;9.640;2022-10-12T05:56:30;10.05;;;2.47;;
71667;SDS011;59504;54.806;9.640;2022-10-12T05:58:49;12.05;;;2.72;;
71667;SDS011;59504;54.806;9.640;2022-10-12T06:01:10;12.45;;;2.88;;
71667;SDS011;59504;54.806;9.640;2022-10-12T06:03:30;11.00;;;2.65;;
71667;SDS011;59504;54.806;9.640;2022-10-12T06:05:49;14.98;;;3.60;;
71667;SDS011;59504;54.806;9.640;2022-10-12T06:08:09;16.88;;;3.50;;
71667;SDS011;59504;54.806;9.640;2022-10-12T06:10:28;10.65;;;3.03;;
71667;SDS011;59504;54.806;9.640;2022-10-12T06:12:48;10.98;;;3.45;;
71667;SDS011;59504;54.806;9.640;2022-10-12T06:15:08;10.07;;;3.63;;
71667;SDS011;59504;54.806;9.640;2022-10-12T06:17:27;11.93;;;3.85;;
71667;SDS011;59504;54.806;9.640;2022-10-12T06:19:47;24.70;;;3.78;;
71667;SDS011;59504;54.806;9.640;2022-10-12T06:22:06;11.18;;;3.78;;
71667;SDS011;59504;54.806;9.640;2022-10-12T06:24:25;14.23;;;3.75;;
71667;SDS011;59504;54.806;9.640;2022-10-12T06:26:44;13.63;;;4.25;;
71667;SDS011;59504;54.806;9.640;2022-10-12T06:29:03;13.80;;;4.22;;
71667;SDS011;59504;54.806;9.640;2022-10-12T06:31:33;13.30;;;3.95;;
71667;SDS011;59504;54.806;9.640;2022-10-12T06:33:53;15.77;;;4.25;;
71667;SDS011;59504;54.806;9.640;2022-10-12T06:36:12;10.55;;;4.28;;
71667;SDS011;59504;54.806;9.640;2022-10-12T06:38:31;12.85;;;4.72;;
71667;SDS011;59504;54.806;9.640;2022-10-12T06:40:50;22.25;;;4.70;;
71667;SDS011;59504;54.806;9.640;2022-10-12T06:43:11;31.63;;;4.85;;
71667;SDS011;59504;54.806;9.640;2022-10-12T06:45:30;23.25;;;5.22;;
71667;SDS011;59504;54.806;9.640;2022-10-12T06:47:49;21.17;;;5.95;;
71667;SDS011;59504;54.806;9.640;2022-10-12T06:50:09;21.98;;;4.80;;
71667;SDS011;59504;54.806;9.640;2022-10-12T06:52:28;17.60;;;5.15;;
71667;SDS011;59504;54.806;9.640;2022-10-12T06:54:47;15.63;;;5.50;;
71667;SDS011;59504;54.806;9.640;2022-10-12T06:57:06;9.82;;;4.53;;
71667;SDS011;59504;54.806;9.640;2022-10-12T06:59:25;18.30;;;4.57;;
71667;SDS011;59504;54.806;9.640;2022-10-12T07:01:44;13.65;;;4.68;;
71667;SDS011;59504;54.806;9.640;2022-10-12T07:04:04;13.52;;;4.53;;
71667;SDS011;59504;54.806;9.640;2022-10-12T07:06:23;22.42;;;5.30;;
71667;SDS011;59504;54.806;9.640;2022-10-12T07:08:42;15.93;;;4.75;;
71667;SDS011;59504;54.806;9.640;2022-10-12T07:11:02;13.15;;;4.00;;
71667;SDS011;59504;54.806;9.640;2022-10-12T07:13:22;12.82;;;4.75;;
71667;SDS011;59504;54.806;9.640;2022-10-12T07:15:41;15.38;;;4.50;;
71667;SDS011;59504;54.806;9.640;2022-10-12T07:18:07;18.60;;;4.65;;
71667;SDS011;59504;54.806;9.640;2022-10-12T07:20:26;13.18;;;4.65;;
71667;SDS011;59504;54.806;9.640;2022-10-12T07:22:45;13.75;;;5.38;;
71667;SDS011;59504;54.806;9.640;2022-10-12T07:25:04;14.57;;;4.63;;
71667;SDS011;59504;54.806;9.640;2022-10-12T07:27:24;11.48;;;4.35;;
71667;SDS011;59504;54.806;9.640;2022-10-12T07:29:43;16.00;;;5.05;;
71667;SDS011;59504;54.806;9.640;2022-10-12T07:32:02;16.10;;;3.90;;
71667;SDS011;59504;54.806;9.640;2022-10-12T07:34:22;11.50;;;3.85;;
71667;SDS011;59504;54.806;9.640;2022-10-12T07:36:41;14.57;;;3.97;;
71667;SDS011;59504;54.806;9.640;2022-10-12T07:39:02;15.95;;;4.30;;
71667;SDS011;59504;54.806;9.640;2022-10-12T07:41:21;16.80;;;4.60;;
71667;SDS011;59504;54.806;9.640;2022-10-12T07:43:41;12.52;;;3.83;;
71667;SDS011;59504;54.806;9.640;2022-10-12T07:46:02;11.85;;;4.40;;
71667;SDS011;59504;54.806;9.640;2022-10-12T07:48:21;14.20;;;3.92;;
71667;SDS011;59504;54.806;9.640;2022-10-12T07:50:41;17.20;;;4.03;;
71667;SDS011;59504;54.806;9.640;2022-10-12T07:53:00;19.02;;;4.65;;
71667;SDS011;59504;54.806;9.640;2022-10-12T07:55:19;13.50;;;3.88;;
71667;SDS011;59504;54.806;9.640;2022-10-12T07:57:38;16.95;;;4.40;;
71667;SDS011;59504;54.806;9.640;2022-10-12T07:59:58;14.35;;;3.97;;
71667;SDS011;59504;54.806;9.640;2022-10-12T08:02:17;15.75;;;3.88;;
71667;SDS011;59504;54.806;9.640;2022-10-12T08:04:36;15.82;;;4.32;;
71667;SDS011;59504;54.806;9.640;2022-10-12T08:06:56;16.88;;;3.90;;
71667;SDS011;59504;54.806;9.640;2022-10-12T08:09:17;12.40;;;3.80;;
71667;SDS011;59504;54.806;9.640;2022-10-12T08:11:17;18.20;;;3.17;;
71667;SDS011;59504;54.806;9.640;2022-10-12T08:13:19;18.52;;;3.45;;
71667;SDS011;59504;54.806;9.640;2022-10-12T08:15:19;16.05;;;3.67;;
71667;SDS011;59504;54.806;9.640;2022-10-12T08:17:20;13.15;;;2.97;;
71667;SDS011;59504;54.806;9.640;2022-10-12T08:19:21;17.63;;;3.45;;
71667;SDS011;59504;54.806;9.640;2022-10-12T08:21:21;8.70;;;2.78;;
71667;SDS011;59504;54.806;9.640;2022-10-12T08:23:23;15.10;;;2.97;;
71667;SDS011;59504;54.806;9.640;2022-10-12T08:25:24;9.90;;;2.30;;
71667;SDS011;59504;54.806;9.640;2022-10-12T08:27:24;15.48;;;2.75;;
71667;SDS011;59504;54.806;9.640;2022-10-12T08:31:28;12.00;;;2.55;;
71667;SDS011;59504;54.806;9.640;2022-10-12T08:33:29;9.65;;;2.20;;
71667;SDS011;59504;54.806;9.640;2022-10-12T08:35:29;11.07;;;2.13;;
71667;SDS011;59504;54.806;9.640;2022-10-12T08:37:30;10.57;;;2.45;;
71667;SDS011;59504;54.806;9.640;2022-10-12T08:39:30;14.02;;;2.65;;
71667;SDS011;59504;54.806;9.640;2022-10-12T08:46:13;13.88;;;2.15;;
71667;SDS011;59504;54.806;9.640;2022-10-12T08:48:27;10.52;;;1.60;;
71667;SDS011;59504;54.806;9.640;2022-10-12T08:50:36;14.63;;;2.28;;
71667;SDS011;59504;54.806;9.640;2022-10-12T08:52:45;11.85;;;1.98;;
71667;SDS011;59504;54.806;9.640;2022-10-12T08:54:50;12.60;;;1.88;;
71667;SDS011;59504;54.806;9.640;2022-10-12T08:56:52;10.32;;;1.65;;
71667;SDS011;59504;54.806;9.640;2022-10-12T08:58:53;13.10;;;1.67;;
71667;SDS011;59504;54.806;9.640;2022-10-12T09:00:56;11.82;;;2.15;;
71667;SDS011;59504;54.806;9.640;2022-10-12T09:05:11;10.80;;;1.58;;
71667;SDS011;59504;54.806;9.640;2022-10-12T09:11:55;9.68;;;1.70;;
71667;SDS011;59504;54.806;9.640;2022-10-12T09:14:18;8.95;;;1.50;;
71667;SDS011;59504;54.806;9.640;2022-10-12T09:16:23;9.98;;;1.27;;
71667;SDS011;59504;54.806;9.640;2022-10-12T09:18:30;8.70;;;1.58;;
71667;SDS011;59504;54.806;9.640;2022-10-12T09:20:44;6.85;;;1.30;;
71667;SDS011;59504;54.806;9.640;2022-10-12T09:22:48;11.52;;;1.88;;
71667;SDS011;59504;54.806;9.640;2022-10-12T09:24:51;4.28;;;1.13;;
71667;SDS011;59504;54.806;9.640;2022-10-12T09:26:57;5.40;;;1.10;;
71667;SDS011;59504;54.806;9.640;2022-10-12T09:28:59;13.80;;;1.73;;
71667;SDS011;59504;54.806;9.640;2022-10-12T09:35:24;10.48;;;1.45;;
71667;SDS011;59504;54.806;9.640;2022-10-12T09:37:26;3.83;;;0.95;;
71667;SDS011;59504;54.806;9.640;2022-10-12T09:39:30;12.38;;;1.30;;
71667;SDS011;59504;54.806;9.640;2022-10-12T09:41:35;10.90;;;1.20;;
71667;SDS011;59504;54.806;9.640;2022-10-12T09:43:40;3.75;;;1.05;;
71667;SDS011;59504;54.806;9.640;2022-10-12T09:45:41;4.47;;;1.13;;
71667;SDS011;59504;54.806;9.640;2022-10-12T09:47:42;10.02;;;1.50;;
71667;SDS011;59504;54.806;9.640;2022-10-12T09:50:13;9.32;;;1.42;;
71667;SDS011;59504;54.806;9.640;2022-10-12T09:52:43;9.95;;;1.73;;
71667;SDS011;59504;54.806;9.640;2022-10-12T09:54:45;6.47;;;1.17;;
71667;SDS011;59504;54.806;9.640;2022-10-12T09:56:51;9.07;;;1.58;;
71667;SDS011;59504;54.806;9.640;2022-10-12T09:59:01;11.52;;;1.27;;
71667;SDS011;59504;54.806;9.640;2022-10-12T10:01:21;10.13;;;1.65;;
71667;SDS011;59504;54.806;9.640;2022-10-12T10:03:23;15.00;;;1.83;;
71667;SDS011;59504;54.806;9.640;2022-10-12T10:05:31;12.50;;;1.40;;
71667;SDS011;59504;54.806;9.640;2022-10-12T10:07:36;8.73;;;1.45;;
71667;SDS011;59504;54.806;9.640;2022-10-12T10:09:37;10.98;;;1.40;;
71667;SDS011;59504;54.806;9.640;2022-10-12T10:11:37;8.43;;;1.50;;
71667;SDS011;59504;54.806;9.640;2022-10-12T10:13:38;9.95;;;1.60;;
71667;SDS011;59504;54.806;9.640;2022-10-12T10:15:47;7.22;;;1.30;;
71667;SDS011;59504;54.806;9.640;2022-10-12T10:17:51;13.38;;;1.90;;
71667;SDS011;59504;54.806;9.640;2022-10-12T10:19:55;11.10;;;1.70;;
71667;SDS011;59504;54.806;9.640;2022-10-12T10:21:59;12.65;;;1.45;;
71667;SDS011;59504;54.806;9.640;2022-10-12T10:24:06;10.02;;;1.35;;
71667;SDS011;59504;54.806;9.640;2022-10-12T10:30:22;8.15;;;1.63;;
71667;SDS011;59504;54.806;9.640;2022-10-12T10:32:24;19.23;;;1.98;;
71667;SDS011;59504;54.806;9.640;2022-10-12T10:34:29;9.40;;;1.70;;
71667;SDS011;59504;54.806;9.640;2022-10-12T10:36:29;9.63;;;1.52;;
71667;SDS011;59504;54.806;9.640;2022-10-12T10:38:44;8.18;;;1.67;;
71667;SDS011;59504;54.806;9.640;2022-10-12T10:40:58;12.25;;;1.45;;
71667;SDS011;59504;54.806;9.640;2022-10-12T10:45:04;10.05;;;1.63;;
71667;SDS011;59504;54.806;9.640;2022-10-12T10:47:11;18.92;;;2.00;;
71667;SDS011;59504;54.806;9.640;2022-10-12T10:49:21;11.55;;;1.85;;
71667;SDS011;59504;54.806;9.640;2022-10-12T10:51:39;10.13;;;1.92;;
71667;SDS011;59504;54.806;9.640;2022-10-12T10:53:49;12.07;;;2.22;;
71667;SDS011;59504;54.806;9.640;2022-10-12T10:58:03;12.02;;;2.05;;
71667;SDS011;59504;54.806;9.640;2022-10-12T11:00:11;13.70;;;2.42;;
71667;SDS011;59504;54.806;9.640;2022-10-12T11:06:34;14.25;;;1.90;;
71667;SDS011;59504;54.806;9.640;2022-10-12T11:08:40;12.95;;;2.25;;
71667;SDS011;59504;54.806;9.640;2022-10-12T11:10:56;10.73;;;1.95;;
71667;SDS011;59504;54.806;9.640;2022-10-12T11:13:10;16.80;;;2.35;;
71667;SDS011;59504;54.806;9.640;2022-10-12T11:15:22;12.55;;;2.40;;
71667;SDS011;59504;54.806;9.640;2022-10-12T11:17:39;8.27;;;1.60;;
71667;SDS011;59504;54.806;9.640;2022-10-12T11:19:50;11.05;;;2.33;;
71667;SDS011;59504;54.806;9.640;2022-10-12T11:21:59;14.50;;;2.53;;
71667;SDS011;59504;54.806;9.640;2022-10-12T11:24:13;12.23;;;2.10;;
71667;SDS011;59504;54.806;9.640;2022-10-12T11:26:36;14.80;;;2.83;;
71667;SDS011;59504;54.806;9.640;2022-10-12T11:29:00;13.65;;;2.40;;
71667;SDS011;59504;54.806;9.640;2022-10-12T11:31:01;11.23;;;2.28;;
71667;SDS011;59504;54.806;9.640;2022-10-12T11:33:08;6.13;;;2.00;;
71667;SDS011;59504;54.806;9.640;2022-10-12T11:35:36;10.25;;;2.20;;
71667;SDS011;59504;54.806;9.640;2022-10-12T11:37:42;13.27;;;2.13;;
71667;SDS011;59504;54.806;9.640;2022-10-12T11:39:48;11.48;;;1.90;;
71667;SDS011;59504;54.806;9.640;2022-10-12T11:41:52;9.90;;;2.08;;
71667;SDS011;59504;54.806;9.640;2022-10-12T11:44:00;12.93;;;2.75;;
71667;SDS011;59504;54.806;9.640;2022-10-12T11:47:12;11.35;;;2.20;;
71667;SDS011;59504;54.806;9.640;2022-10-12T11:50:53;11.73;;;2.10;;
71667;SDS011;59504;54.806;9.640;2022-10-12T11:52:57;8.23;;;2.20;;
71667;SDS011;59504;54.806;9.640;2022-10-12T12:05:44;14.18;;;2.25;;
71667;SDS011;59504;54.806;9.640;2022-10-12T12:09:49;10.63;;;2.00;;
71667;SDS011;59504;54.806;9.640;2022-10-12T12:11:50;14.55;;;2.30;;
71667;SDS011;59504;54.806;9.640;2022-10-12T12:16:29;9.60;;;1.77;;
71667;SDS011;59504;54.806;9.640;2022-10-12T12:18:34;15.80;;;2.15;;
71667;SDS011;59504;54.806;9.640;2022-10-12T12:21:10;12.60;;;2.40;;
71667;SDS011;59504;54.806;9.640;2022-10-12T12:25:28;10.93;;;2.00;;
71667;SDS011;59504;54.806;9.640;2022-10-12T12:27:33;17.02;;;2.22;;
71667;SDS011;59504;54.806;9.640;2022-10-12T12:29:34;11.00;;;2.13;;
71667;SDS011;59504;54.806;9.640;2022-10-12T12:31:35;10.93;;;2.15;;
71667;SDS011;59504;54.806;9.640;2022-10-12T12:33:37;15.40;;;2.83;;
71667;SDS011;59504;54.806;9.640;2022-10-12T12:40:16;11.52;;;2.50;;
71667;SDS011;59504;54.806;9.640;2022-10-12T12:42:26;10.13;;;1.88;;
71667;SDS011;59504;54.806;9.640;2022-10-12T12:48:56;13.00;;;1.88;;
71667;SDS011;59504;54.806;9.640;2022-10-12T12:50:57;12.50;;;2.63;;
71667;SDS011;59504;54.806;9.640;2022-10-12T12:53:03;14.13;;;2.05;;
71667;SDS011;59504;54.806;9.640;2022-10-12T12:57:28;17.88;;;2.47;;
71667;SDS011;59504;54.806;9.640;2022-10-12T13:07:06;12.43;;;1.90;;
71667;SDS011;59504;54.806;9.640;2022-10-12T13:19:11;7.65;;;1.80;;
71667;SDS011;59504;54.806;9.640;2022-10-12T13:21:15;18.85;;;2.35;;
71667;SDS011;59504;54.806;9.640;2022-10-12T13:23:28;13.85;;;1.88;;
71667;SDS011;59504;54.806;9.640;2022-10-12T13:25:33;15.05;;;1.90;;
71667;SDS011;59504;54.806;9.640;2022-10-12T13:27:42;9.23;;;1.77;;
71667;SDS011;59504;54.806;9.640;2022-10-12T13:32:18;13.63;;;2.53;;
71667;SDS011;59504;54.806;9.640;2022-10-12T13:34:40;9.82;;;2.15;;
71667;SDS011;59504;54.806;9.640;2022-10-12T13:36:45;9.88;;;2.08;;
71667;SDS011;59504;54.806;9.640;2022-10-12T13:38:58;8.50;;;1.53;;
71667;SDS011;59504;54.806;9.640;2022-10-12T13:45:22;16.10;;;2.20;;
71667;SDS011;59504;54.806;9.640;2022-10-12T13:49:29;15.85;;;1.90;;
71667;SDS011;59504;54.806;9.640;2022-10-12T13:51:32;5.13;;;1.48;;
71667;SDS011;59504;54.806;9.640;2022-10-12T13:53:36;11.68;;;1.42;;
71667;SDS011;59504;54.806;9.640;2022-10-12T13:55:38;7.28;;;1.98;;
71667;SDS011;59504;54.806;9.640;2022-10-12T13:59:41;11.63;;;2.05;;
71667;SDS011;59504;54.806;9.640;2022-10-12T14:01:47;7.63;;;1.35;;
71667;SDS011;59504;54.806;9.640;2022-10-12T14:03:55;10.15;;;1.52;;
71667;SDS011;59504;54.806;9.640;2022-10-12T14:06:02;9.60;;;1.77;;
71667;SDS011;59504;54.806;9.640;2022-10-12T14:08:14;14.27;;;2.50;;
71667;SDS011;59504;54.806;9.640;2022-10-12T14:12:35;11.50;;;2.05;;
71667;SDS011;59504;54.806;9.640;2022-10-12T14:14:36;7.90;;;2.03;;
71667;SDS011;59504;54.806;9.640;2022-10-12T14:16:38;10.55;;;1.92;;
71667;SDS011;59504;54.806;9.640;2022-10-12T14:18:43;12.77;;;1.85;;
71667;SDS011;59504;54.806;9.640;2022-10-12T14:20:44;11.40;;;2.28;;
71667;SDS011;59504;54.806;9.640;2022-10-12T14:22:46;5.22;;;1.15;;
71667;SDS011;59504;54.806;9.640;2022-10-12T14:24:49;9.57;;;1.42;;
71667;SDS011;59504;54.806;9.640;2022-10-12T14:26:54;9.63;;;1.58;;
71667;SDS011;59504;54.806;9.640;2022-10-12T14:29:11;10.52;;;1.77;;
71667;SDS011;59504;54.806;9.640;2022-10-12T14:31:48;9.43;;;1.85;;
71667;SDS011;59504;54.806;9.640;2022-10-12T14:33:52;8.07;;;1.45;;
71667;SDS011;59504;54.806;9.640;2022-10-12T14:36:10;7.13;;;1.60;;
71667;SDS011;59504;54.806;9.640;2022-10-12T14:40:40;11.35;;;1.60;;
71667;SDS011;59504;54.806;9.640;2022-10-12T14:42:42;11.93;;;1.70;;
71667;SDS011;59504;54.806;9.640;2022-10-12T14:45:03;10.25;;;1.55;;
71667;SDS011;59504;54.806;9.640;2022-10-12T14:47:09;10.18;;;2.00;;
71667;SDS011;59504;54.806;9.640;2022-10-12T14:49:16;13.27;;;1.90;;
71667;SDS011;59504;54.806;9.640;2022-10-12T14:51:39;14.23;;;1.83;;
71667;SDS011;59504;54.806;9.640;2022-10-12T14:54:03;11.15;;;2.38;;
71667;SDS011;59504;54.806;9.640;2022-10-12T14:56:24;17.73;;;2.88;;
71667;SDS011;59504;54.806;9.640;2022-10-12T14:58:45;7.65;;;2.22;;
71667;SDS011;59504;54.806;9.640;2022-10-12T15:01:05;8.75;;;2.10;;
71667;SDS011;59504;54.806;9.640;2022-10-12T15:03:27;7.07;;;2.08;;
71667;SDS011;59504;54.806;9.640;2022-10-12T15:05:48;10.13;;;1.90;;
71667;SDS011;59504;54.806;9.640;2022-10-12T15:08:09;13.55;;;2.75;;
71667;SDS011;59504;54.806;9.640;2022-10-12T15:10:29;14.43;;;2.70;;
71667;SDS011;59504;54.806;9.640;2022-10-12T15:12:50;14.20;;;2.20;;
71667;SDS011;59504;54.806;9.640;2022-10-12T15:14:52;7.80;;;2.25;;
71667;SDS011;59504;54.806;9.640;2022-10-12T15:16:58;9.27;;;1.77;;
71667;SDS011;59504;54.806;9.640;2022-10-12T15:19:18;11.27;;;2.05;;
71667;SDS011;59504;54.806;9.640;2022-10-12T15:21:39;14.52;;;2.30;;